createdAt,value
2017-08-03T00:00:30.015Z,0
2017-08-03T00:01:39.546Z,0
2017-08-03T00:02:48.759Z,0
2017-08-03T00:03:57.646Z,0
2017-08-03T00:05:06.853Z,0
2017-08-03T00:06:16.709Z,0
2017-08-03T00:07:26.250Z,0
2017-08-03T00:08:35.461Z,0
2017-08-03T00:09:44.993Z,0
2017-08-03T00:10:54.846Z,0
2017-08-03T00:12:04.100Z,0
2017-08-03T00:13:13.304Z,0
2017-08-03T00:14:23.156Z,0
2017-08-03T00:15:32.689Z,0
2017-08-03T00:16:42.223Z,0
2017-08-03T00:17:51.259Z,0
2017-08-03T00:19:00.785Z,0
2017-08-03T00:20:09.989Z,0
2017-08-03T00:21:18.872Z,0
2017-08-03T00:22:28.436Z,0
2017-08-03T00:23:38.072Z,0
2017-08-03T00:24:47.280Z,0
2017-08-03T00:25:56.171Z,0
2017-08-03T00:27:06.030Z,0
2017-08-03T00:28:15.234Z,0
2017-08-03T00:29:24.811Z,0
2017-08-03T00:30:34.661Z,0
2017-08-03T00:31:44.509Z,0
2017-08-03T00:32:53.714Z,0
2017-08-03T00:34:03.242Z,0
2017-08-03T00:35:12.919Z,0
2017-08-03T00:36:22.462Z,0
2017-08-03T00:37:32.312Z,0
2017-08-03T00:38:41.844Z,0
2017-08-03T00:39:51.694Z,0
2017-08-03T00:41:01.602Z,0
2017-08-03T00:42:10.809Z,0
2017-08-03T00:43:20.014Z,0
2017-08-03T00:44:29.216Z,0
2017-08-03T00:45:38.746Z,0
2017-08-03T00:46:48.000Z,0
2017-08-03T00:47:57.527Z,0
2017-08-03T00:49:06.747Z,0
2017-08-03T00:50:16.602Z,0
2017-08-03T00:51:25.496Z,0
2017-08-03T00:52:35.446Z,0
2017-08-03T00:53:44.976Z,0
2017-08-03T00:54:54.192Z,0
2017-08-03T00:56:03.726Z,0
2017-08-03T00:57:13.581Z,0
2017-08-03T00:58:22.586Z,0
2017-08-03T00:59:31.465Z,0
2017-08-03T01:00:41.003Z,0
2017-08-03T01:01:50.534Z,0
2017-08-03T01:03:00.713Z,0
2017-08-03T01:04:10.398Z,0
2017-08-03T01:05:19.606Z,0
2017-08-03T01:06:29.135Z,0
2017-08-03T01:07:38.988Z,0
2017-08-03T01:08:48.855Z,0
2017-08-03T01:09:58.120Z,0
2017-08-03T01:11:07.649Z,0
2017-08-03T01:12:17.507Z,0
2017-08-03T01:13:26.724Z,0
2017-08-03T01:14:35.612Z,0
2017-08-03T01:15:44.872Z,0
2017-08-03T01:16:54.401Z,0
2017-08-03T01:18:03.608Z,0
2017-08-03T01:19:13.139Z,0
2017-08-03T01:20:22.343Z,0
2017-08-03T01:21:32.247Z,0
2017-08-03T01:22:41.828Z,0
2017-08-03T01:23:51.685Z,0
2017-08-03T01:25:00.893Z,0
2017-08-03T01:26:10.425Z,0
2017-08-03T01:27:20.126Z,0
2017-08-03T01:28:29.661Z,0
2017-08-03T01:29:39.517Z,0
2017-08-03T01:30:48.730Z,0
2017-08-03T01:31:58.262Z,0
2017-08-03T01:33:07.623Z,0
2017-08-03T01:34:17.475Z,0
2017-08-03T01:35:26.362Z,0
2017-08-03T01:36:36.539Z,0
2017-08-03T01:37:46.069Z,0
2017-08-03T01:38:55.748Z,0
2017-08-03T01:40:04.957Z,0
2017-08-03T01:41:14.165Z,0
2017-08-03T01:42:24.020Z,0
2017-08-03T01:43:33.872Z,0
2017-08-03T01:44:43.376Z,0
2017-08-03T01:45:52.917Z,0
2017-08-03T01:47:02.454Z,0
2017-08-03T01:48:11.711Z,0
2017-08-03T01:49:21.237Z,0
2017-08-03T01:50:31.019Z,0
2017-08-03T01:51:40.231Z,0
2017-08-03T01:52:49.759Z,0
2017-08-03T01:53:58.639Z,0
2017-08-03T01:55:07.849Z,0
2017-08-03T01:56:17.358Z,0
2017-08-03T01:57:26.248Z,0
2017-08-03T01:58:35.457Z,0
2017-08-03T01:59:44.341Z,0
2017-08-03T02:00:53.551Z,0
2017-08-03T02:02:03.469Z,0
2017-08-03T02:03:13.324Z,0
2017-08-03T02:04:22.530Z,0
2017-08-03T02:05:32.385Z,0
2017-08-03T02:06:41.915Z,0
2017-08-03T02:07:50.845Z,0
2017-08-03T02:08:59.733Z,0
2017-08-03T02:10:09.268Z,0
2017-08-03T02:11:18.802Z,0
2017-08-03T02:12:28.336Z,0
2017-08-03T02:13:37.221Z,0
2017-08-03T02:14:46.429Z,0
2017-08-03T02:15:55.632Z,0
2017-08-03T02:17:05.487Z,0
2017-08-03T02:18:15.017Z,0
2017-08-03T02:19:24.273Z,0
2017-08-03T02:20:34.124Z,0
2017-08-03T02:21:43.348Z,0
2017-08-03T02:22:52.231Z,0
2017-08-03T02:24:01.768Z,0
2017-08-03T02:25:11.771Z,0
2017-08-03T02:26:21.310Z,0
2017-08-03T02:27:30.189Z,0
2017-08-03T02:28:39.716Z,0
2017-08-03T02:29:49.245Z,0
2017-08-03T02:30:58.552Z,0
2017-08-03T02:32:07.761Z,0
2017-08-03T02:33:17.617Z,0
2017-08-03T02:34:27.143Z,0
2017-08-03T02:35:36.674Z,0
2017-08-03T02:36:46.207Z,0
2017-08-03T02:37:55.095Z,0
2017-08-03T02:39:04.947Z,0
2017-08-03T02:40:14.174Z,0
2017-08-03T02:41:23.381Z,0
2017-08-03T02:42:33.241Z,0
2017-08-03T02:43:42.773Z,0
2017-08-03T02:44:52.632Z,0
2017-08-03T02:46:02.165Z,0
2017-08-03T02:47:11.374Z,0
2017-08-03T02:48:21.221Z,0
2017-08-03T02:49:30.758Z,0
2017-08-03T02:50:40.295Z,0
2017-08-03T02:51:49.503Z,0
2017-08-03T02:52:59.038Z,0
2017-08-03T02:54:08.076Z,0
2017-08-03T02:55:17.284Z,0
2017-08-03T02:56:26.824Z,0
2017-08-03T02:57:35.718Z,0
2017-08-03T02:58:45.251Z,0
2017-08-03T02:59:55.080Z,0
2017-08-03T03:01:04.285Z,0
2017-08-03T03:02:13.490Z,0
2017-08-03T03:03:22.698Z,0
2017-08-03T03:04:32.229Z,0
2017-08-03T03:05:42.515Z,0
2017-08-03T03:06:51.720Z,0
2017-08-03T03:08:00.926Z,0
2017-08-03T03:09:10.457Z,0
2017-08-03T03:10:19.337Z,0
2017-08-03T03:11:28.793Z,0
2017-08-03T03:12:38.645Z,0
2017-08-03T03:13:47.858Z,0
2017-08-03T03:14:57.386Z,0
2017-08-03T03:16:06.594Z,0
2017-08-03T03:17:16.051Z,0
2017-08-03T03:18:25.578Z,0
2017-08-03T03:19:34.788Z,0
2017-08-03T03:20:44.318Z,0
2017-08-03T03:21:53.200Z,0
2017-08-03T03:23:02.780Z,0
2017-08-03T03:24:11.986Z,0
2017-08-03T03:25:21.192Z,0
2017-08-03T03:26:30.074Z,4
2017-08-03T03:27:39.279Z,4
2017-08-03T03:28:48.462Z,4
2017-08-03T03:29:58.964Z,4
2017-08-03T03:31:09.149Z,4
2017-08-03T03:32:18.682Z,0
2017-08-03T03:33:27.889Z,4
2017-08-03T03:34:37.149Z,8
2017-08-03T03:35:46.356Z,8
2017-08-03T03:36:56.208Z,8
2017-08-03T03:38:05.427Z,12
2017-08-03T03:39:14.651Z,8
2017-08-03T03:40:23.537Z,8
2017-08-03T03:41:33.390Z,8
2017-08-03T03:42:42.599Z,12
2017-08-03T03:43:52.125Z,16
2017-08-03T03:45:01.335Z,16
2017-08-03T03:46:10.924Z,20
2017-08-03T03:47:20.132Z,20
2017-08-03T03:48:29.667Z,16
2017-08-03T03:49:39.195Z,16
2017-08-03T03:50:48.409Z,20
2017-08-03T03:51:57.492Z,16
2017-08-03T03:53:07.350Z,20
2017-08-03T03:54:16.881Z,20
2017-08-03T03:55:26.085Z,24
2017-08-03T03:56:34.972Z,28
2017-08-03T03:57:44.801Z,32
2017-08-03T03:58:54.973Z,32
2017-08-03T04:00:03.857Z,28
2017-08-03T04:01:13.389Z,32
2017-08-03T04:02:22.924Z,36
2017-08-03T04:03:32.609Z,32
2017-08-03T04:04:42.465Z,40
2017-08-03T04:05:51.992Z,48
2017-08-03T04:07:01.849Z,48
2017-08-03T04:08:11.070Z,52
2017-08-03T04:09:20.702Z,56
2017-08-03T04:10:30.229Z,64
2017-08-03T04:11:39.441Z,80
2017-08-03T04:12:49.290Z,92
2017-08-03T04:13:58.170Z,112
2017-08-03T04:15:07.579Z,124
2017-08-03T04:16:16.790Z,128
2017-08-03T04:17:25.995Z,136
2017-08-03T04:18:35.199Z,128
2017-08-03T04:19:44.409Z,124
2017-08-03T04:20:54.439Z,116
2017-08-03T04:22:03.645Z,112
2017-08-03T04:23:13.181Z,104
2017-08-03T04:24:22.725Z,96
2017-08-03T04:25:32.255Z,88
2017-08-03T04:26:41.785Z,108
2017-08-03T04:27:51.327Z,128
2017-08-03T04:29:01.206Z,140
2017-08-03T04:30:10.827Z,144
2017-08-03T04:31:20.353Z,144
2017-08-03T04:32:29.893Z,144
2017-08-03T04:33:39.422Z,148
2017-08-03T04:34:48.951Z,148
2017-08-03T04:35:58.488Z,156
2017-08-03T04:37:07.702Z,164
2017-08-03T04:38:16.910Z,176
2017-08-03T04:39:26.115Z,208
2017-08-03T04:40:35.652Z,272
2017-08-03T04:41:45.522Z,304
2017-08-03T04:42:54.732Z,292
2017-08-03T04:44:03.940Z,256
2017-08-03T04:45:12.820Z,228
2017-08-03T04:46:22.348Z,232
2017-08-03T04:47:32.217Z,240
2017-08-03T04:48:41.420Z,248
2017-08-03T04:49:50.946Z,240
2017-08-03T04:51:00.501Z,240
2017-08-03T04:52:10.058Z,240
2017-08-03T04:53:19.268Z,228
2017-08-03T04:54:28.156Z,236
2017-08-03T04:55:37.366Z,264
2017-08-03T04:56:46.573Z,336
2017-08-03T04:57:55.932Z,436
2017-08-03T04:59:05.782Z,536
2017-08-03T05:00:14.994Z,616
2017-08-03T05:01:24.850Z,656
2017-08-03T05:02:34.450Z,668
2017-08-03T05:03:43.484Z,676
2017-08-03T05:04:52.693Z,660
2017-08-03T05:06:02.546Z,612
2017-08-03T05:07:12.724Z,544
2017-08-03T05:08:22.899Z,516
2017-08-03T05:09:33.005Z,528
2017-08-03T05:10:42.536Z,564
2017-08-03T05:11:52.393Z,668
2017-08-03T05:13:02.257Z,804
2017-08-03T05:14:11.791Z,896
2017-08-03T05:15:20.779Z,908
2017-08-03T05:16:29.991Z,900
2017-08-03T05:17:39.521Z,996
2017-08-03T05:18:48.440Z,1016
2017-08-03T05:19:57.323Z,1076
2017-08-03T05:21:06.834Z,1120
2017-08-03T05:22:16.364Z,1076
2017-08-03T05:23:25.896Z,980
2017-08-03T05:24:35.432Z,896
2017-08-03T05:25:44.320Z,808
2017-08-03T05:26:53.352Z,752
2017-08-03T05:28:02.239Z,764
2017-08-03T05:29:12.109Z,828
2017-08-03T05:30:21.322Z,856
2017-08-03T05:31:31.179Z,836
2017-08-03T05:32:41.203Z,892
2017-08-03T05:33:50.408Z,952
2017-08-03T05:34:59.940Z,904
2017-08-03T05:36:10.126Z,776
2017-08-03T05:37:19.017Z,704
2017-08-03T05:38:28.372Z,780
2017-08-03T05:39:37.913Z,776
2017-08-03T05:40:47.116Z,756
2017-08-03T05:41:57.303Z,700
2017-08-03T05:43:06.832Z,708
2017-08-03T05:44:15.872Z,700
2017-08-03T05:45:25.409Z,664
2017-08-03T05:46:35.271Z,516
2017-08-03T05:47:45.355Z,560
2017-08-03T05:48:54.602Z,636
2017-08-03T05:50:05.087Z,940
2017-08-03T05:51:14.951Z,928
2017-08-03T05:52:25.585Z,944
2017-08-03T05:53:34.842Z,544
2017-08-03T05:54:45.091Z,564
2017-08-03T05:55:55.465Z,452
2017-08-03T05:57:05.403Z,640
2017-08-03T05:58:15.265Z,748
2017-08-03T05:59:24.795Z,720
2017-08-03T06:00:34.625Z,872
2017-08-03T06:01:44.030Z,1004
2017-08-03T06:02:53.657Z,1044
2017-08-03T06:04:03.261Z,1040
2017-08-03T06:05:12.831Z,1108
2017-08-03T06:06:23.253Z,888
2017-08-03T06:07:32.929Z,688
2017-08-03T06:08:42.200Z,716
2017-08-03T06:09:51.448Z,936
2017-08-03T06:11:00.742Z,1008
2017-08-03T06:12:10.740Z,1200
2017-08-03T06:13:20.128Z,1760
2017-08-03T06:14:29.055Z,2108
2017-08-03T06:15:38.477Z,2380
2017-08-03T06:16:47.746Z,2652
2017-08-03T06:17:57.174Z,2976
2017-08-03T06:19:07.614Z,3076
2017-08-03T06:20:17.983Z,2872
2017-08-03T06:21:27.265Z,2592
2017-08-03T06:22:36.150Z,2336
2017-08-03T06:23:45.547Z,1988
2017-08-03T06:24:54.604Z,1836
2017-08-03T06:26:04.371Z,1988
2017-08-03T06:27:13.609Z,2208
2017-08-03T06:28:22.977Z,2336
2017-08-03T06:29:32.256Z,2300
2017-08-03T06:30:41.604Z,2248
2017-08-03T06:31:50.948Z,2284
2017-08-03T06:32:59.928Z,2332
2017-08-03T06:34:09.239Z,2320
2017-08-03T06:35:18.492Z,2524
2017-08-03T06:36:28.282Z,2916
2017-08-03T06:37:37.261Z,3492
2017-08-03T06:38:46.741Z,3640
2017-08-03T06:39:57.181Z,3984
2017-08-03T06:41:06.816Z,4296
2017-08-03T06:42:16.225Z,3708
2017-08-03T06:43:25.531Z,3012
2017-08-03T06:44:34.907Z,2632
2017-08-03T06:45:44.532Z,2972
2017-08-03T06:46:53.471Z,3092
2017-08-03T06:48:02.840Z,2724
2017-08-03T06:49:12.171Z,3396
2017-08-03T06:50:21.523Z,3568
2017-08-03T06:51:31.030Z,3980
2017-08-03T06:52:40.596Z,3680
2017-08-03T06:53:50.214Z,3100
2017-08-03T06:55:00.210Z,3196
2017-08-03T06:56:09.469Z,3092
2017-08-03T06:57:18.390Z,3060
2017-08-03T06:58:27.676Z,3048
2017-08-03T06:59:37.549Z,3284
2017-08-03T07:00:46.576Z,3572
2017-08-03T07:01:55.893Z,3556
2017-08-03T07:03:05.168Z,3024
2017-08-03T07:04:15.148Z,2828
2017-08-03T07:05:24.925Z,2856
2017-08-03T07:06:34.209Z,3120
2017-08-03T07:07:44.232Z,3032
2017-08-03T07:08:53.520Z,2836
2017-08-03T07:10:02.833Z,2588
2017-08-03T07:11:12.561Z,2564
2017-08-03T07:12:21.510Z,2744
2017-08-03T07:13:31.150Z,2808
2017-08-03T07:14:40.417Z,2596
2017-08-03T07:15:49.697Z,2460
2017-08-03T07:16:59.434Z,2312
2017-08-03T07:18:08.399Z,2340
2017-08-03T07:19:17.333Z,2428
2017-08-03T07:20:27.477Z,2104
2017-08-03T07:21:37.778Z,1976
2017-08-03T07:22:47.130Z,1880
2017-08-03T07:23:56.410Z,1676
2017-08-03T07:25:06.253Z,1752
2017-08-03T07:26:15.523Z,1756
2017-08-03T07:27:25.503Z,1820
2017-08-03T07:28:35.100Z,1952
2017-08-03T07:29:45.039Z,1840
2017-08-03T07:30:54.688Z,1600
2017-08-03T07:32:04.291Z,1440
2017-08-03T07:33:13.891Z,1824
2017-08-03T07:34:23.886Z,1912
2017-08-03T07:35:33.178Z,2232
2017-08-03T07:36:43.113Z,2664
2017-08-03T07:37:52.412Z,2696
2017-08-03T07:39:01.709Z,3244
2017-08-03T07:40:11.133Z,3548
2017-08-03T07:41:20.450Z,3724
2017-08-03T07:42:30.047Z,3920
2017-08-03T07:43:39.308Z,4064
2017-08-03T07:44:49.134Z,3928
2017-08-03T07:45:59.269Z,4092
2017-08-03T07:47:08.913Z,4440
2017-08-03T07:48:18.191Z,4756
2017-08-03T07:49:27.798Z,4716
2017-08-03T07:50:37.085Z,4464
2017-08-03T07:51:46.479Z,4300
2017-08-03T07:52:56.060Z,4456
2017-08-03T07:54:05.371Z,4996
2017-08-03T07:55:14.595Z,5220
2017-08-03T07:56:23.483Z,4828
2017-08-03T07:57:32.744Z,4568
2017-08-03T07:58:42.947Z,5068
2017-08-03T07:59:52.490Z,5028
2017-08-03T08:01:01.489Z,4240
2017-08-03T08:02:11.210Z,3924
2017-08-03T08:03:20.623Z,4248
2017-08-03T08:04:29.904Z,3900
2017-08-03T08:05:38.816Z,3668
2017-08-03T08:06:48.409Z,4180
2017-08-03T08:07:58.362Z,3900
2017-08-03T08:09:08.427Z,3808
2017-08-03T08:10:17.314Z,3476
2017-08-03T08:11:27.235Z,2936
2017-08-03T08:12:37.200Z,2660
2017-08-03T08:13:47.578Z,2100
2017-08-03T08:14:57.324Z,2008
2017-08-03T08:16:06.492Z,2092
2017-08-03T08:17:16.065Z,2068
2017-08-03T08:18:25.944Z,2456
2017-08-03T08:19:35.846Z,2828
2017-08-03T08:20:46.040Z,3520
2017-08-03T08:21:55.253Z,4272
2017-08-03T08:23:04.216Z,4264
2017-08-03T08:24:14.091Z,4136
2017-08-03T08:25:22.997Z,4280
2017-08-03T08:26:33.061Z,4500
2017-08-03T08:27:42.320Z,4120
2017-08-03T08:28:51.867Z,3308
2017-08-03T08:30:01.378Z,3176
2017-08-03T08:31:11.498Z,3348
2017-08-03T08:32:20.522Z,3240
2017-08-03T08:33:30.002Z,2512
2017-08-03T08:34:39.746Z,2344
2017-08-03T08:35:48.955Z,3232
2017-08-03T08:36:58.851Z,4392
2017-08-03T08:38:09.013Z,3968
2017-08-03T08:39:18.219Z,3016
2017-08-03T08:40:27.791Z,2012
2017-08-03T08:41:37.382Z,1532
2017-08-03T08:42:47.632Z,1616
2017-08-03T08:43:57.794Z,1900
2017-08-03T08:45:08.112Z,1728
2017-08-03T08:46:18.880Z,1612
2017-08-03T08:47:28.027Z,1584
2017-08-03T08:48:38.152Z,1512
2017-08-03T08:49:48.318Z,1336
2017-08-03T08:50:58.125Z,1548
2017-08-03T08:52:08.138Z,1608
2017-08-03T08:53:17.076Z,1552
2017-08-03T08:54:26.946Z,1480
2017-08-03T08:55:36.963Z,1472
2017-08-03T08:56:45.905Z,1396
2017-08-03T08:57:55.559Z,1452
2017-08-03T08:59:04.819Z,1460
2017-08-03T09:00:14.362Z,1484
2017-08-03T09:01:24.551Z,1456
2017-08-03T09:02:34.868Z,1392
2017-08-03T09:03:44.293Z,1384
2017-08-03T09:04:53.516Z,1376
2017-08-03T09:06:03.455Z,1380
2017-08-03T09:07:13.641Z,1364
2017-08-03T09:08:22.872Z,1312
2017-08-03T09:09:32.408Z,1356
2017-08-03T09:10:41.950Z,1408
2017-08-03T09:11:51.813Z,1460
2017-08-03T09:13:01.505Z,1476
2017-08-03T09:14:10.720Z,1488
2017-08-03T09:15:19.940Z,1544
2017-08-03T09:16:29.151Z,1620
2017-08-03T09:17:38.367Z,1732
2017-08-03T09:18:48.277Z,2068
2017-08-03T09:19:57.812Z,2356
2017-08-03T09:21:06.701Z,2740
2017-08-03T09:22:15.914Z,3500
2017-08-03T09:23:25.451Z,4072
2017-08-03T09:24:34.819Z,4884
2017-08-03T09:25:44.387Z,6368
2017-08-03T09:26:53.286Z,6752
2017-08-03T09:28:03.487Z,6624
2017-08-03T09:29:13.032Z,6656
2017-08-03T09:30:23.037Z,6904
2017-08-03T09:31:31.926Z,7608
2017-08-03T09:32:41.800Z,6924
2017-08-03T09:33:51.016Z,6432
2017-08-03T09:35:00.235Z,5980
2017-08-03T09:36:10.256Z,5792
2017-08-03T09:37:19.481Z,5584
2017-08-03T09:38:28.369Z,5452
2017-08-03T09:39:37.901Z,5360
2017-08-03T09:40:47.488Z,5064
2017-08-03T09:41:57.228Z,4800
2017-08-03T09:43:07.742Z,4760
2017-08-03T09:44:16.630Z,4512
2017-08-03T09:45:25.518Z,4352
2017-08-03T09:46:34.761Z,3512
2017-08-03T09:47:44.026Z,3416
2017-08-03T09:48:53.563Z,3004
2017-08-03T09:50:02.778Z,2948
2017-08-03T09:51:12.314Z,2348
2017-08-03T09:52:21.538Z,2688
2017-08-03T09:53:30.824Z,2960
2017-08-03T09:54:40.041Z,3036
2017-08-03T09:55:49.257Z,3944
2017-08-03T09:56:59.115Z,3376
2017-08-03T09:58:08.027Z,4092
2017-08-03T09:59:17.878Z,4748
2017-08-03T10:00:27.100Z,4992
2017-08-03T10:01:35.989Z,6060
2017-08-03T10:02:45.234Z,7260
2017-08-03T10:03:54.772Z,7628
2017-08-03T10:05:04.135Z,7552
2017-08-03T10:06:13.745Z,7688
2017-08-03T10:07:23.928Z,7600
2017-08-03T10:08:33.152Z,7756
2017-08-03T10:09:42.364Z,7068
2017-08-03T10:10:52.103Z,7040
2017-08-03T10:12:01.645Z,7288
2017-08-03T10:13:11.188Z,6152
2017-08-03T10:14:21.053Z,5616
2017-08-03T10:15:30.595Z,5632
2017-08-03T10:16:40.228Z,6432
2017-08-03T10:17:49.442Z,7548
2017-08-03T10:18:58.651Z,7104
2017-08-03T10:20:08.513Z,5888
2017-08-03T10:21:17.729Z,5456
2017-08-03T10:22:26.690Z,4388
2017-08-03T10:23:36.886Z,4068
2017-08-03T10:24:46.097Z,5764
2017-08-03T10:25:55.339Z,6760
2017-08-03T10:27:05.202Z,6668
2017-08-03T10:28:14.841Z,7448
2017-08-03T10:29:24.698Z,6500
2017-08-03T10:30:34.559Z,5632
2017-08-03T10:31:43.771Z,4580
2017-08-03T10:32:53.305Z,4064
2017-08-03T10:34:02.844Z,5028
2017-08-03T10:35:12.062Z,7148
2017-08-03T10:36:22.245Z,3364
2017-08-03T10:37:32.110Z,3916
2017-08-03T10:38:40.995Z,3540
2017-08-03T10:39:50.530Z,4180
2017-08-03T10:40:59.742Z,3904
2017-08-03T10:42:09.280Z,3992
2017-08-03T10:43:18.493Z,6284
2017-08-03T10:44:28.030Z,6308
2017-08-03T10:45:37.630Z,4488
2017-08-03T10:46:47.499Z,3728
2017-08-03T10:47:57.039Z,3072
2017-08-03T10:49:06.898Z,2684
2017-08-03T10:50:16.433Z,2360
2017-08-03T10:51:26.120Z,2212
2017-08-03T10:52:35.684Z,2232
2017-08-03T10:53:45.247Z,2388
2017-08-03T10:54:54.466Z,2692
2017-08-03T10:56:03.355Z,3052
2017-08-03T10:57:13.091Z,3324
2017-08-03T10:58:22.627Z,3740
2017-08-03T10:59:31.843Z,2848
2017-08-03T11:00:41.381Z,3908
2017-08-03T11:01:50.594Z,3976
2017-08-03T11:03:00.065Z,3584
2017-08-03T11:04:08.958Z,4136
2017-08-03T11:05:18.827Z,3836
2017-08-03T11:06:28.444Z,6324
2017-08-03T11:07:38.029Z,6472
2017-08-03T11:08:47.567Z,7484
2017-08-03T11:09:56.798Z,7584
2017-08-03T11:11:06.023Z,7584
2017-08-03T11:12:15.887Z,6752
2017-08-03T11:13:25.105Z,3696
2017-08-03T11:14:34.320Z,5192
2017-08-03T11:15:43.860Z,8120
2017-08-03T11:16:53.079Z,8884
2017-08-03T11:18:02.612Z,4628
2017-08-03T11:19:12.151Z,3484
2017-08-03T11:20:21.374Z,5300
2017-08-03T11:21:30.914Z,10688
2017-08-03T11:22:39.809Z,8360
2017-08-03T11:23:49.343Z,7140
2017-08-03T11:24:59.199Z,5424
2017-08-03T11:26:08.744Z,4500
2017-08-03T11:27:17.967Z,6092
2017-08-03T11:28:27.513Z,8248
2017-08-03T11:29:37.059Z,6160
2017-08-03T11:30:45.948Z,6536
2017-08-03T11:31:55.497Z,9640
2017-08-03T11:33:05.038Z,8252
2017-08-03T11:34:14.781Z,4072
2017-08-03T11:35:24.325Z,3688
2017-08-03T11:36:33.540Z,7520
2017-08-03T11:37:42.751Z,6476
2017-08-03T11:38:51.645Z,5180
2017-08-03T11:40:01.914Z,3584
2017-08-03T11:41:11.786Z,2768
2017-08-03T11:42:21.323Z,2800
2017-08-03T11:43:31.510Z,2268
2017-08-03T11:44:40.722Z,4108
2017-08-03T11:45:50.792Z,9744
2017-08-03T11:47:00.004Z,9852
2017-08-03T11:48:09.226Z,7752
2017-08-03T11:49:19.088Z,9576
2017-08-03T11:50:28.316Z,14124
2017-08-03T11:51:37.585Z,13612
2017-08-03T11:52:47.124Z,14304
2017-08-03T11:53:56.014Z,10508
2017-08-03T11:55:05.553Z,8704
2017-08-03T11:56:14.767Z,10048
2017-08-03T11:57:24.367Z,14076
2017-08-03T11:58:34.238Z,8408
2017-08-03T11:59:44.101Z,5468
2017-08-03T12:00:53.315Z,3892
2017-08-03T12:02:03.175Z,6620
2017-08-03T12:03:12.737Z,5776
2017-08-03T12:04:21.954Z,4108
2017-08-03T12:05:31.171Z,3164
2017-08-03T12:06:40.387Z,4336
2017-08-03T12:07:50.253Z,6356
2017-08-03T12:08:59.678Z,8624
2017-08-03T12:10:08.893Z,21792
2017-08-03T12:11:18.433Z,37024
2017-08-03T12:12:27.974Z,30080
2017-08-03T12:13:37.197Z,40928
2017-08-03T12:14:46.393Z,44064
2017-08-03T12:15:55.941Z,51712
2017-08-03T12:17:05.153Z,62208
2017-08-03T12:18:15.021Z,67904
2017-08-03T12:19:24.241Z,83648
2017-08-03T12:20:33.514Z,11500
2017-08-03T12:21:43.378Z,57312
2017-08-03T12:22:52.270Z,94208
2017-08-03T12:24:01.499Z,81184
2017-08-03T12:25:11.375Z,35328
2017-08-03T12:26:20.920Z,9856
2017-08-03T12:27:30.785Z,5136
2017-08-03T12:28:40.007Z,3372
2017-08-03T12:29:49.549Z,2732
2017-08-03T12:30:59.112Z,4480
2017-08-03T12:32:09.138Z,3872
2017-08-03T12:33:19.329Z,8412
2017-08-03T12:34:28.541Z,6996
2017-08-03T12:35:38.090Z,7436
2017-08-03T12:36:46.984Z,12436
2017-08-03T12:37:57.258Z,10984
2017-08-03T12:39:06.156Z,4600
2017-08-03T12:40:16.018Z,4084
2017-08-03T12:41:25.557Z,4924
2017-08-03T12:42:35.109Z,8296
2017-08-03T12:43:45.021Z,95392
2017-08-03T12:44:54.562Z,95168
2017-08-03T12:46:04.131Z,6740
2017-08-03T12:47:13.678Z,7564
2017-08-03T12:48:23.217Z,5456
2017-08-03T12:49:33.809Z,4672
2017-08-03T12:50:43.690Z,6768
2017-08-03T12:51:53.554Z,21248
2017-08-03T12:53:02.777Z,10788
2017-08-03T12:54:11.994Z,75040
2017-08-03T12:55:21.465Z,26976
2017-08-03T12:56:31.014Z,16152
2017-08-03T12:57:40.877Z,87200
2017-08-03T12:58:50.415Z,39328
2017-08-03T13:00:00.297Z,12872
2017-08-03T13:01:10.094Z,12312
2017-08-03T13:02:19.641Z,98464
2017-08-03T13:03:29.198Z,99552
2017-08-03T13:04:38.759Z,18784
2017-08-03T13:05:48.317Z,7616
2017-08-03T13:06:57.592Z,6524
2017-08-03T13:08:07.467Z,7616
2017-08-03T13:09:17.018Z,5932
2017-08-03T13:10:25.933Z,6808
2017-08-03T13:11:34.837Z,5436
2017-08-03T13:12:44.480Z,4308
2017-08-03T13:13:53.700Z,6884
2017-08-03T13:15:02.599Z,16544
2017-08-03T13:16:12.153Z,9516
2017-08-03T13:17:21.053Z,65120
2017-08-03T13:18:30.650Z,8200
2017-08-03T13:19:39.543Z,8100
2017-08-03T13:20:48.441Z,31328
2017-08-03T13:21:58.310Z,7700
2017-08-03T13:23:07.857Z,6852
2017-08-03T13:24:17.277Z,13152
2017-08-03T13:25:26.497Z,94496
2017-08-03T13:26:35.722Z,89024
2017-08-03T13:27:45.260Z,10296
2017-08-03T13:28:55.150Z,88320
2017-08-03T13:30:04.676Z,28352
2017-08-03T13:31:13.901Z,50560
2017-08-03T13:32:22.834Z,38368
2017-08-03T13:33:32.415Z,38080
2017-08-03T13:34:42.288Z,93728
2017-08-03T13:35:52.239Z,88544
2017-08-03T13:37:01.467Z,8456
2017-08-03T13:38:11.362Z,60160
2017-08-03T13:39:20.904Z,83808
2017-08-03T13:40:30.473Z,68480
2017-08-03T13:41:40.191Z,15340
2017-08-03T13:42:49.427Z,3904
2017-08-03T13:43:58.656Z,2940
2017-08-03T13:45:07.882Z,1456
2017-08-03T13:46:17.101Z,2564
2017-08-03T13:47:26.796Z,2672
2017-08-03T13:48:35.693Z,2156
2017-08-03T13:49:45.236Z,1048
2017-08-03T13:50:54.456Z,2340
2017-08-03T13:52:04.003Z,2588
2017-08-03T13:53:12.904Z,4080
2017-08-03T13:54:22.138Z,5732
2017-08-03T13:55:31.380Z,17888
2017-08-03T13:56:40.280Z,13912
2017-08-03T13:57:49.854Z,81792
2017-08-03T13:58:59.559Z,80256
2017-08-03T14:00:09.112Z,83520
2017-08-03T14:01:19.306Z,78176
2017-08-03T14:02:28.856Z,24800
2017-08-03T14:03:37.768Z,9288
2017-08-03T14:04:47.146Z,58880
2017-08-03T14:05:56.709Z,36096
2017-08-03T14:07:06.611Z,31328
2017-08-03T14:08:15.570Z,6476
2017-08-03T14:09:25.183Z,5444
2017-08-03T14:10:34.991Z,27104
2017-08-03T14:11:44.863Z,77760
2017-08-03T14:12:54.101Z,45952
2017-08-03T14:14:03.990Z,68960
2017-08-03T14:15:13.228Z,69792
2017-08-03T14:16:22.742Z,74304
2017-08-03T14:17:32.609Z,47840
2017-08-03T14:18:41.827Z,69024
2017-08-03T14:19:50.769Z,69984
2017-08-03T14:21:00.003Z,36704
2017-08-03T14:22:09.273Z,12216
2017-08-03T14:23:18.220Z,10728
2017-08-03T14:24:27.491Z,69920
2017-08-03T14:25:36.719Z,79392
2017-08-03T14:26:46.263Z,73152
2017-08-03T14:27:55.869Z,72704
2017-08-03T14:29:05.412Z,73984
2017-08-03T14:30:14.958Z,70176
2017-08-03T14:31:24.660Z,71072
2017-08-03T14:32:34.551Z,74112
2017-08-03T14:33:44.007Z,71680
2017-08-03T14:34:53.623Z,54464
2017-08-03T14:36:03.511Z,71008
2017-08-03T14:37:13.056Z,70112
2017-08-03T14:38:22.598Z,67712
2017-08-03T14:39:32.145Z,66784
2017-08-03T14:40:41.692Z,69408
2017-08-03T14:41:50.597Z,66944
2017-08-03T14:43:00.156Z,71648
2017-08-03T14:44:10.039Z,71520
2017-08-03T14:45:19.595Z,72800
2017-08-03T14:46:28.822Z,10116
2017-08-03T14:47:38.044Z,13300
2017-08-03T14:48:47.284Z,68416
2017-08-03T14:49:56.831Z,6472
2017-08-03T14:51:06.383Z,64160
2017-08-03T14:52:15.283Z,59296
2017-08-03T14:53:25.149Z,65792
2017-08-03T14:54:34.705Z,67776
2017-08-03T14:55:43.608Z,63328
2017-08-03T14:56:53.512Z,59968
2017-08-03T14:58:02.741Z,41824
2017-08-03T14:59:12.342Z,65728
2017-08-03T15:00:21.573Z,69760
2017-08-03T15:01:31.124Z,65888
2017-08-03T15:02:40.685Z,63424
2017-08-03T15:03:50.232Z,64928
2017-08-03T15:05:00.161Z,69312
2017-08-03T15:06:09.728Z,69696
2017-08-03T15:07:19.606Z,68448
2017-08-03T15:08:29.483Z,66048
2017-08-03T15:09:39.030Z,66368
2017-08-03T15:10:48.678Z,71680
2017-08-03T15:11:57.915Z,67520
2017-08-03T15:13:07.136Z,49088
2017-08-03T15:14:16.692Z,4508
2017-08-03T15:15:58.116Z,55840
2017-08-03T15:17:07.341Z,12120
2017-08-03T15:18:16.891Z,5340
2017-08-03T15:19:26.442Z,3964
2017-08-03T15:20:36.313Z,31104
2017-08-03T15:21:45.799Z,40768
2017-08-03T15:22:55.021Z,35008
2017-08-03T15:24:04.893Z,27360
2017-08-03T15:25:13.803Z,27680
2017-08-03T15:26:23.028Z,15584
2017-08-03T15:27:32.177Z,25024
2017-08-03T15:28:41.730Z,32832
2017-08-03T15:29:51.597Z,27552
2017-08-03T15:31:00.816Z,24704
2017-08-03T15:32:11.334Z,20896
2017-08-03T15:33:20.857Z,15192
2017-08-03T15:34:30.408Z,12940
2017-08-03T15:35:39.631Z,12348
2017-08-03T15:36:49.850Z,11464
2017-08-03T15:37:59.069Z,10848
2017-08-03T15:39:08.441Z,8732
2017-08-03T15:40:17.993Z,9972
2017-08-03T15:41:27.214Z,4720
2017-08-03T15:42:37.409Z,4704
2017-08-03T15:43:47.605Z,5736
2017-08-03T15:44:56.901Z,5292
2017-08-03T15:46:06.125Z,4468
2017-08-03T15:47:15.346Z,10364
2017-08-03T15:48:24.569Z,7008